createdAt,value
2023-03-08T00:02:22.523Z,11.25
2023-03-08T00:05:25.441Z,9.90
2023-03-08T00:08:28.605Z,10.27
2023-03-08T00:11:31.403Z,10.32
2023-03-08T00:14:33.420Z,10.25
2023-03-08T00:17:37.653Z,11.73
2023-03-08T00:20:42.004Z,10.75
2023-03-08T00:23:46.586Z,11.35
2023-03-08T00:26:51.016Z,12.63
2023-03-08T00:29:52.816Z,12.48
2023-03-08T00:32:55.100Z,12.18
2023-03-08T00:35:59.193Z,12.15
2023-03-08T00:39:04.750Z,12.57
2023-03-08T00:42:07.749Z,11.93
2023-03-08T00:45:11.890Z,12.38
2023-03-08T00:48:14.665Z,13.10
2023-03-08T00:51:18.409Z,13.27
2023-03-08T00:54:22.048Z,13.35
2023-03-08T00:57:23.812Z,13.52
2023-03-08T01:00:26.350Z,13.30
2023-03-08T01:03:28.551Z,13.68
2023-03-08T01:06:30.887Z,14.05
2023-03-08T01:09:41.449Z,13.93
2023-03-08T01:12:44.426Z,13.90
2023-03-08T01:15:46.969Z,12.60
2023-03-08T01:18:51.679Z,13.65
2023-03-08T01:21:55.961Z,13.45
2023-03-08T01:25:00.952Z,14.43
2023-03-08T01:28:02.852Z,12.45
2023-03-08T01:31:07.592Z,12.90
2023-03-08T01:34:09.887Z,13.00
2023-03-08T01:37:11.912Z,12.57
2023-03-08T01:40:16.206Z,12.60
2023-03-08T01:43:24.483Z,14.30
2023-03-08T01:46:28.987Z,13.45
2023-03-08T01:49:38.430Z,12.60
2023-03-08T01:55:45.569Z,13.77
2023-03-08T01:58:50.899Z,14.00
2023-03-08T02:01:53.949Z,12.80
2023-03-08T02:04:55.718Z,14.18
2023-03-08T02:07:58.494Z,13.95
2023-03-08T02:11:02.427Z,14.10
2023-03-08T02:14:04.288Z,14.23
2023-03-08T02:17:06.359Z,13.00
2023-03-08T02:20:14.910Z,13.75
2023-03-08T02:23:21.764Z,14.10
2023-03-08T02:26:24.408Z,13.82
2023-03-08T02:29:28.370Z,13.63
2023-03-08T02:32:30.374Z,12.98
2023-03-08T02:35:33.418Z,12.48
2023-03-08T02:38:37.479Z,13.27
2023-03-08T02:41:41.339Z,14.07
2023-03-08T02:44:45.689Z,14.48
2023-03-08T02:47:55.822Z,13.43
2023-03-08T02:50:57.615Z,13.05
2023-03-08T02:54:00.977Z,13.82
2023-03-08T02:57:05.934Z,13.73
2023-03-08T03:00:10.289Z,13.80
2023-03-08T03:03:13.286Z,14.05
2023-03-08T03:06:17.047Z,12.23
2023-03-08T03:09:20.547Z,13.40
2023-03-08T03:12:22.348Z,14.13
2023-03-08T03:15:30.541Z,13.13
2023-03-08T03:18:32.537Z,13.95
2023-03-08T03:21:34.689Z,13.82
2023-03-08T03:24:38.084Z,14.05
2023-03-08T03:27:40.726Z,14.20
2023-03-08T03:30:43.300Z,12.85
2023-03-08T03:33:45.722Z,12.80
2023-03-08T03:36:48.022Z,13.23
2023-03-08T03:39:54.505Z,13.93
2023-03-08T03:42:56.684Z,13.40
2023-03-08T03:45:59.947Z,13.43
2023-03-08T03:49:03.260Z,12.30
2023-03-08T03:52:08.761Z,13.38
2023-03-08T03:55:12.867Z,13.25
2023-03-08T03:58:17.239Z,13.20
2023-03-08T04:01:21.092Z,13.23
2023-03-08T04:04:23.915Z,13.50
2023-03-08T04:07:26.105Z,12.68
2023-03-08T04:10:31.422Z,13.20
2023-03-08T04:13:35.546Z,12.50
2023-03-08T04:16:39.966Z,12.45
2023-03-08T04:19:43.481Z,12.88
2023-03-08T04:22:46.125Z,12.73
2023-03-08T04:25:49.986Z,13.30
2023-03-08T04:28:52.166Z,12.35
2023-03-08T04:31:55.201Z,12.73
2023-03-08T04:34:57.211Z,13.25
2023-03-08T04:37:59.085Z,13.07
2023-03-08T04:41:02.433Z,12.80
2023-03-08T04:44:04.626Z,12.57
2023-03-08T04:47:06.752Z,13.20
2023-03-08T04:50:09.697Z,12.35
2023-03-08T04:53:11.977Z,12.90
2023-03-08T04:56:19.046Z,13.05
2023-03-08T04:59:20.865Z,12.93
2023-03-08T05:02:24.143Z,13.75
2023-03-08T05:05:26.291Z,12.23
2023-03-08T05:08:28.077Z,11.90
2023-03-08T05:11:34.601Z,12.60
2023-03-08T05:14:39.270Z,11.82
2023-03-08T05:17:43.451Z,13.07
2023-03-08T05:20:47.999Z,11.75
2023-03-08T05:23:50.148Z,12.73
2023-03-08T05:26:53.464Z,12.05
2023-03-08T05:29:55.373Z,12.02
2023-03-08T05:32:57.898Z,11.60
2023-03-08T05:35:59.996Z,12.25
2023-03-08T05:39:02.459Z,11.68
2023-03-08T05:42:06.780Z,11.68
2023-03-08T05:45:09.673Z,12.43
2023-03-08T05:48:12.554Z,12.63
2023-03-08T05:51:16.185Z,10.90
2023-03-08T05:54:19.198Z,12.30
2023-03-08T05:57:22.604Z,11.40
2023-03-08T06:00:25.978Z,12.20
2023-03-08T06:03:28.842Z,11.48
2023-03-08T06:06:30.640Z,11.50
2023-03-08T06:09:35.502Z,11.65
2023-03-08T06:12:38.896Z,12.10
2023-03-08T06:15:41.142Z,12.77
2023-03-08T06:18:46.295Z,12.00
2023-03-08T06:21:50.507Z,11.90
2023-03-08T06:24:53.003Z,12.63
2023-03-08T06:27:56.425Z,11.68
2023-03-08T06:30:58.353Z,11.60
2023-03-08T06:34:02.719Z,12.25
2023-03-08T06:37:04.994Z,14.43
2023-03-08T06:40:11.183Z,15.45
2023-03-08T06:43:17.727Z,13.05
2023-03-08T06:46:19.600Z,11.70
2023-03-08T06:49:22.262Z,11.82
2023-03-08T06:52:24.205Z,12.38
2023-03-08T06:55:26.159Z,11.63
2023-03-08T06:58:32.826Z,11.52
2023-03-08T07:01:37.312Z,12.13
2023-03-08T07:04:40.314Z,11.57
2023-03-08T07:07:44.128Z,11.95
2023-03-08T07:10:47.660Z,11.80
2023-03-08T07:13:53.202Z,12.63
2023-03-08T07:16:55.848Z,12.68
2023-03-08T07:20:00.161Z,12.13
2023-03-08T07:23:04.547Z,12.05
2023-03-08T07:26:07.193Z,11.70
2023-03-08T07:29:10.604Z,12.65
2023-03-08T07:32:15.952Z,12.05
2023-03-08T07:35:18.379Z,12.60
2023-03-08T07:38:20.134Z,12.48
2023-03-08T07:41:22.306Z,11.85
2023-03-08T07:44:25.767Z,12.20
2023-03-08T07:47:30.543Z,12.27
2023-03-08T07:50:34.992Z,12.52
2023-03-08T07:53:38.142Z,12.48
2023-03-08T07:56:41.556Z,12.07
2023-03-08T07:59:45.351Z,12.18
2023-03-08T08:02:47.672Z,12.70
2023-03-08T08:05:49.531Z,11.30
2023-03-08T08:08:51.755Z,11.95
2023-03-08T08:11:53.803Z,11.90
2023-03-08T08:14:59.449Z,11.25
2023-03-08T08:18:01.620Z,11.02
2023-03-08T08:21:06.218Z,11.93
2023-03-08T08:24:09.545Z,11.00
2023-03-08T08:27:12.376Z,11.38
2023-03-08T08:30:20.219Z,11.27
2023-03-08T08:33:22.216Z,10.93
2023-03-08T08:36:24.688Z,10.73
2023-03-08T08:39:26.632Z,12.18
2023-03-08T08:42:28.593Z,10.73
2023-03-08T08:45:32.192Z,11.32
2023-03-08T08:48:34.503Z,11.30
2023-03-08T08:51:36.768Z,10.93
2023-03-08T08:54:41.104Z,10.38
2023-03-08T08:57:44.209Z,10.35
2023-03-08T09:00:49.983Z,11.13
2023-03-08T09:03:52.417Z,10.55
2023-03-08T09:06:55.385Z,11.52
2023-03-08T09:09:58.432Z,10.38
2023-03-08T09:13:03.188Z,11.07
2023-03-08T09:16:07.278Z,10.55
2023-03-08T09:19:09.314Z,10.05
2023-03-08T09:22:11.583Z,10.07
2023-03-08T09:25:16.279Z,11.48
2023-03-08T09:28:18.046Z,11.27
2023-03-08T09:31:21.327Z,10.48
2023-03-08T09:34:26.004Z,10.27
2023-03-08T09:37:29.181Z,10.57
2023-03-08T09:40:39.592Z,10.80
2023-03-08T09:43:47.620Z,9.63
2023-03-08T09:46:55.888Z,10.00
2023-03-08T09:50:07.254Z,10.65
2023-03-08T09:53:21.343Z,10.00
2023-03-08T09:56:32.348Z,9.65
2023-03-08T09:59:42.086Z,9.35
2023-03-08T10:02:53.456Z,9.90
2023-03-08T10:06:03.347Z,9.10
2023-03-08T10:09:16.325Z,9.35
2023-03-08T10:12:24.106Z,9.35
2023-03-08T10:15:28.249Z,8.60
2023-03-08T10:18:37.320Z,8.57
2023-03-08T10:21:43.692Z,9.27
2023-03-08T10:24:50.686Z,9.98
2023-03-08T10:27:54.900Z,9.32
2023-03-08T10:31:01.259Z,9.93
2023-03-08T10:34:13.103Z,10.02
2023-03-08T10:37:16.662Z,10.13
2023-03-08T10:40:22.128Z,10.15
2023-03-08T10:43:28.480Z,9.35
2023-03-08T10:46:31.024Z,10.80
2023-03-08T10:49:34.493Z,9.82
2023-03-08T10:52:37.879Z,10.20
2023-03-08T10:55:46.909Z,9.82
2023-03-08T10:58:48.879Z,9.77
2023-03-08T11:01:53.061Z,8.80
2023-03-08T11:04:58.383Z,9.95
2023-03-08T11:08:02.889Z,9.82
2023-03-08T11:11:10.409Z,10.07
2023-03-08T11:14:12.367Z,9.50
2023-03-08T11:17:23.104Z,10.65
2023-03-08T11:20:33.798Z,9.50
2023-03-08T11:23:43.962Z,9.82
2023-03-08T11:26:56.449Z,9.70
2023-03-08T11:30:12.683Z,10.20
2023-03-08T11:33:50.813Z,9.88
2023-03-08T11:37:06.528Z,10.45
2023-03-08T11:40:22.199Z,10.15
2023-03-08T11:43:41.293Z,9.70
2023-03-08T11:46:53.540Z,10.35
2023-03-08T11:50:06.873Z,9.27
2023-03-08T11:53:19.530Z,10.10
2023-03-08T11:56:40.293Z,10.40
2023-03-08T11:59:47.205Z,6.80
2023-03-08T12:02:50.618Z,9.23
2023-03-08T12:05:55.968Z,9.45
2023-03-08T12:09:04.721Z,9.65
2023-03-08T12:12:13.556Z,9.40
2023-03-08T12:15:25.882Z,10.02
2023-03-08T12:18:35.863Z,9.55
2023-03-08T12:21:43.670Z,9.00
2023-03-08T12:24:58.189Z,10.00
2023-03-08T12:28:04.509Z,9.25
2023-03-08T12:31:27.815Z,9.30
2023-03-08T12:34:39.631Z,10.27
2023-03-08T12:37:41.880Z,9.07
2023-03-08T12:40:49.828Z,10.07
2023-03-08T12:44:03.664Z,9.05
2023-03-08T12:47:19.924Z,9.70
2023-03-08T12:50:25.425Z,9.75
2023-03-08T12:53:33.961Z,9.88
2023-03-08T12:56:50.154Z,9.83
2023-03-08T12:59:58.040Z,10.07
2023-03-08T13:03:03.326Z,9.95
2023-03-08T13:06:43.771Z,9.90
2023-03-08T13:09:57.503Z,9.67
2023-03-08T13:13:37.172Z,9.50
2023-03-08T13:16:40.513Z,10.18
2023-03-08T13:19:43.564Z,9.73
2023-03-08T13:22:57.199Z,9.90
2023-03-08T13:26:21.585Z,9.80
2023-03-08T13:29:34.382Z,9.95
2023-03-08T13:32:36.963Z,11.05
2023-03-08T13:35:39.795Z,10.00
2023-03-08T13:38:44.275Z,9.93
2023-03-08T13:41:48.654Z,10.63
2023-03-08T13:44:54.899Z,9.40
2023-03-08T13:48:04.285Z,10.95
2023-03-08T13:54:16.618Z,10.05
2023-03-08T13:57:23.759Z,10.43
2023-03-08T14:00:30.380Z,10.13
2023-03-08T14:03:33.246Z,10.43
2023-03-08T14:06:35.582Z,11.05
2023-03-08T14:09:38.575Z,12.32
2023-03-08T14:12:47.246Z,13.43
2023-03-08T14:15:56.266Z,13.85
2023-03-08T14:19:00.217Z,12.35
2023-03-08T14:22:05.217Z,11.88
2023-03-08T14:25:20.503Z,13.90
2023-03-08T14:28:35.072Z,13.88
2023-03-08T14:31:40.108Z,12.63
2023-03-08T14:34:45.239Z,12.10
2023-03-08T14:37:47.327Z,11.77
2023-03-08T14:40:52.723Z,12.00
2023-03-08T14:43:54.518Z,11.93
2023-03-08T14:47:09.662Z,11.80
2023-03-08T14:50:22.733Z,11.52
2023-03-08T14:53:27.580Z,10.95
2023-03-08T14:56:30.720Z,11.55
2023-03-08T14:59:32.921Z,12.40
2023-03-08T15:02:36.393Z,13.05
2023-03-08T15:05:38.890Z,13.00
2023-03-08T15:08:40.873Z,13.98
2023-03-08T15:11:44.766Z,13.00
2023-03-08T15:14:46.925Z,13.02
2023-03-08T15:17:53.567Z,12.23
2023-03-08T15:20:59.225Z,11.40
2023-03-08T15:24:02.668Z,12.57
2023-03-08T15:27:05.672Z,12.20
2023-03-08T15:30:26.860Z,11.90
2023-03-08T15:33:30.270Z,11.88
2023-03-08T15:36:32.249Z,11.38
2023-03-08T15:39:34.496Z,11.70
2023-03-08T15:42:36.875Z,11.57
2023-03-08T15:45:39.024Z,12.27
2023-03-08T15:48:42.964Z,10.90
2023-03-08T15:51:44.735Z,11.20
2023-03-08T15:54:51.695Z,12.70
2023-03-08T15:57:53.832Z,12.05
2023-03-08T16:00:55.861Z,10.70
2023-03-08T16:03:59.379Z,10.93
2023-03-08T16:07:01.172Z,10.68
2023-03-08T16:10:05.502Z,10.70
2023-03-08T16:13:08.164Z,10.55
2023-03-08T16:16:13.106Z,9.98
2023-03-08T16:19:18.694Z,10.88
2023-03-08T16:22:20.891Z,10.27
2023-03-08T16:25:22.748Z,9.82
2023-03-08T16:28:24.576Z,8.70
2023-03-08T16:31:26.685Z,8.82
2023-03-08T16:34:30.538Z,9.43
2023-03-08T16:37:32.814Z,10.05
2023-03-08T16:40:41.935Z,9.27
2023-03-08T16:43:48.501Z,8.07
2023-03-08T16:46:51.685Z,7.90
2023-03-08T16:49:57.228Z,7.25
2023-03-08T16:52:59.218Z,7.70
2023-03-08T16:56:03.443Z,8.15
2023-03-08T16:59:06.293Z,8.00
2023-03-08T17:02:13.680Z,7.22
2023-03-08T17:05:18.866Z,9.13
2023-03-08T17:08:21.081Z,8.48
2023-03-08T17:11:25.213Z,7.75
2023-03-08T17:14:29.613Z,7.50
2023-03-08T17:17:31.603Z,8.20
2023-03-08T17:20:35.551Z,8.88
2023-03-08T17:23:38.661Z,7.25
2023-03-08T17:26:44.679Z,8.55
2023-03-08T17:29:47.035Z,12.65
2023-03-08T17:32:49.852Z,14.30
2023-03-08T17:35:56.506Z,13.60
2023-03-08T17:38:58.984Z,13.90
2023-03-08T17:42:01.177Z,13.55
2023-03-08T17:45:06.336Z,14.48
2023-03-08T17:48:08.583Z,14.02
2023-03-08T17:51:14.556Z,16.73
2023-03-08T17:54:18.989Z,16.85
2023-03-08T17:57:21.587Z,20.67
2023-03-08T18:00:25.506Z,21.77
2023-03-08T18:03:27.871Z,19.65
2023-03-08T18:06:34.919Z,20.08
2023-03-08T18:09:38.074Z,19.92
2023-03-08T18:12:42.293Z,19.55
2023-03-08T18:15:45.278Z,18.75
2023-03-08T18:18:48.467Z,17.13
2023-03-08T18:21:53.457Z,17.60
2023-03-08T18:24:56.561Z,15.88
2023-03-08T18:28:02.428Z,14.55
2023-03-08T18:31:08.368Z,13.85
2023-03-08T18:34:13.700Z,13.43
2023-03-08T18:37:17.879Z,14.00
2023-03-08T18:40:20.313Z,10.85
2023-03-08T18:43:22.573Z,8.95
2023-03-08T18:46:28.339Z,10.20
2023-03-08T18:49:33.749Z,9.98
2023-03-08T18:52:38.448Z,11.63
2023-03-08T18:55:41.359Z,12.15
2023-03-08T18:58:44.815Z,10.27
2023-03-08T19:01:47.060Z,10.38
2023-03-08T19:04:52.666Z,12.60
2023-03-08T19:07:58.694Z,12.77
2023-03-08T19:11:12.432Z,13.07
2023-03-08T19:14:17.918Z,12.50
2023-03-08T19:17:20.584Z,12.20
2023-03-08T19:20:25.493Z,11.50
2023-03-08T19:23:32.964Z,10.98
2023-03-08T19:26:38.789Z,10.63
2023-03-08T19:29:46.208Z,10.18
2023-03-08T19:32:49.682Z,11.85
2023-03-08T19:35:52.817Z,14.25
2023-03-08T19:39:00.950Z,10.00
2023-03-08T19:42:06.293Z,5.43
2023-03-08T19:45:12.629Z,6.95
2023-03-08T19:48:19.198Z,3.28
2023-03-08T19:51:22.484Z,2.33
2023-03-08T19:54:30.580Z,2.72
2023-03-08T19:57:33.553Z,2.08
2023-03-08T20:00:37.711Z,2.60
2023-03-08T20:03:41.003Z,2.45
2023-03-08T20:06:47.048Z,2.65
2023-03-08T20:10:04.598Z,2.65
2023-03-08T20:13:14.583Z,2.45
2023-03-08T20:16:19.362Z,2.38
2023-03-08T20:19:23.007Z,2.65
2023-03-08T20:22:26.295Z,2.92
2023-03-08T20:25:40.703Z,3.53
2023-03-08T20:28:44.080Z,3.08
2023-03-08T20:31:53.169Z,3.35
2023-03-08T20:34:57.542Z,3.17
2023-03-08T20:38:02.185Z,3.25
2023-03-08T20:41:09.756Z,2.88
2023-03-08T20:44:14.886Z,3.10
2023-03-08T20:47:19.387Z,2.78
2023-03-08T20:50:25.175Z,2.75
2023-03-08T20:53:30.180Z,2.85
2023-03-08T20:56:36.872Z,3.15
2023-03-08T20:59:44.495Z,3.10
2023-03-08T21:02:50.974Z,3.13
2023-03-08T21:05:57.101Z,3.30
2023-03-08T21:09:00.993Z,3.10
2023-03-08T21:12:05.884Z,3.78
2023-03-08T21:15:11.615Z,3.92
2023-03-08T21:18:17.410Z,4.00
2023-03-08T21:21:27.186Z,4.13
2023-03-08T21:24:31.572Z,4.47
2023-03-08T21:27:36.343Z,4.38
2023-03-08T21:30:39.685Z,4.10
2023-03-08T21:33:42.668Z,4.13
2023-03-08T21:36:45.578Z,4.65
2023-03-08T21:39:49.127Z,4.05
2023-03-08T21:42:55.278Z,4.07
2023-03-08T21:45:58.391Z,3.47
2023-03-08T21:49:01.352Z,3.38
2023-03-08T21:52:05.656Z,3.63
2023-03-08T21:55:08.345Z,3.53
2023-03-08T21:58:11.775Z,4.30
2023-03-08T22:01:22.216Z,3.90
2023-03-08T22:04:25.212Z,3.60
2023-03-08T22:07:27.259Z,3.28
2023-03-08T22:10:29.655Z,3.53
2023-03-08T22:13:33.422Z,3.45
2023-03-08T22:16:38.115Z,3.67
2023-03-08T22:19:40.206Z,3.55
2023-03-08T22:22:44.759Z,2.85
2023-03-08T22:25:46.552Z,3.28
2023-03-08T22:28:50.958Z,2.75
2023-03-08T22:31:52.770Z,2.42
2023-03-08T22:34:54.834Z,3.10
2023-03-08T22:38:00.512Z,2.50
2023-03-08T22:41:08.128Z,3.17
2023-03-08T22:44:12.963Z,2.70
2023-03-08T22:47:16.007Z,2.88
2023-03-08T22:50:20.596Z,2.75
2023-03-08T22:53:22.377Z,2.90
2023-03-08T22:56:29.257Z,2.80
2023-03-08T22:59:35.989Z,3.00
2023-03-08T23:02:38.267Z,2.95
2023-03-08T23:05:40.266Z,2.67
2023-03-08T23:08:44.027Z,2.58
2023-03-08T23:11:46.259Z,2.78
2023-03-08T23:14:50.075Z,2.95
2023-03-08T23:17:52.151Z,2.35
2023-03-08T23:20:53.976Z,3.00
2023-03-08T23:23:59.244Z,2.70
2023-03-08T23:27:01.036Z,2.80
2023-03-08T23:30:05.964Z,3.00
2023-03-08T23:33:07.732Z,2.63
2023-03-08T23:36:11.590Z,2.33
2023-03-08T23:39:13.811Z,2.60
2023-03-08T23:42:15.812Z,2.42
2023-03-08T23:45:26.602Z,2.40
2023-03-08T23:48:29.016Z,2.53
2023-03-08T23:51:33.776Z,3.17
2023-03-08T23:54:35.830Z,3.60
2023-03-08T23:57:37.851Z,4.10
